Time;durP1;ratioP1;P1;durP2;ratioP2;P2;SDS_P1;SDS_P2;PMS_P1;PMS_P2;Temp;Humidity;BMP_temperature;BMP_pressure;BME280_temperature;BME280_humidity;BME280_pressure;Samples;Min_cycle;Max_cycle;Signal;HPM_P1;HPM_P2
2021/07/06 00:02:43;;;;;;;;;18.50;17.75;;;;;26.13;45.33;98463.28;6164998;28;97525;-62
2021/07/06 00:05:46;;;;;;;;;17.60;17.60;;;;;26.15;45.58;98472.81;6151554;28;98138;-62
2021/07/06 00:08:49;;;;;;;;;19.50;17.25;;;;;26.17;45.42;98467.78;6151244;28;98160;-62
2021/07/06 00:11:52;;;;;;;;;22.20;19.80;;;;;26.16;45.52;98470.88;6164732;28;96600;-63
2021/07/06 00:14:57;;;;;;;;;19.00;18.00;;;;;26.09;45.66;98470.59;6164908;28;98109;-62
2021/07/06 00:18:00;;;;;;;;;19.00;18.50;;;;;26.09;45.71;98465.91;6151445;28;96967;-62
2021/07/06 00:21:03;;;;;;;;;17.00;16.50;;;;;26.04;45.72;98463.31;6164171;28;96721;-62
2021/07/06 00:24:07;;;;;;;;;21.20;19.20;;;;;26.04;45.69;98471.59;6163416;28;97497;-63
2021/07/06 00:27:10;;;;;;;;;17.40;16.40;;;;;26.04;45.68;98476.31;6164657;28;97521;-62
2021/07/06 00:30:17;;;;;;;;;15.00;14.00;;;;;26.01;45.73;98475.03;6162811;28;96678;-63
2021/07/06 00:33:21;;;;;;;;;19.00;18.00;;;;;25.97;45.95;98481.53;6164137;28;97174;-62
2021/07/06 00:36:24;;;;;;;;;18.40;17.40;;;;;25.90;46.09;98481.28;6164843;28;97306;-62
2021/07/06 00:39:28;;;;;;;;;17.00;15.20;;;;;25.86;46.15;98472.81;6138342;28;98046;-62
2021/07/06 00:42:31;;;;;;;;;18.00;17.00;;;;;25.83;46.14;98479.00;6158718;28;97586;-61
2021/07/06 00:45:35;;;;;;;;;20.00;19.00;;;;;25.82;46.03;98471.88;6164287;28;96724;-63
2021/07/06 00:48:39;;;;;;;;;17.80;17.00;;;;;25.80;46.29;98479.69;6164311;28;97385;-62
2021/07/06 00:51:43;;;;;;;;;16.33;15.33;;;;;25.74;46.45;98478.25;6148644;28;96813;-62
2021/07/06 00:54:46;;;;;;;;;16.40;16.00;;;;;25.70;46.45;98493.84;6163494;28;97506;-62
2021/07/06 00:57:49;;;;;;;;;18.00;16.00;;;;;25.66;46.54;98493.69;6164422;28;97511;-62
2021/07/06 01:00:54;;;;;;;;;18.00;16.60;;;;;25.64;46.62;98495.97;6163787;28;97462;-62
2021/07/06 01:04:01;;;;;;;;;19.40;18.40;;;;;25.61;46.67;98499.38;6164236;28;97503;-62
2021/07/06 01:07:04;;;;;;;;;19.60;18.40;;;;;25.61;46.53;98504.91;6163988;28;96561;-62
2021/07/06 01:10:09;;;;;;;;;19.33;16.33;;;;;25.45;46.30;98485.28;6150684;28;96761;-62
2021/07/06 01:13:13;;;;;;;;;19.00;18.00;;;;;25.58;46.67;98511.09;6163350;28;96916;-62
2021/07/06 01:16:17;;;;;;;;;18.20;17.20;;;;;25.44;46.91;98502.97;6163548;28;96432;-63
2021/07/06 01:19:21;;;;;;;;;19.00;16.40;;;;;25.38;47.10;98497.97;6163303;28;97523;-63
2021/07/06 01:22:30;;;;;;;;;21.75;19.75;;;;;25.32;47.42;98500.06;6155759;28;97453;-62
2021/07/06 01:25:34;;;;;;;;;20.40;18.40;;;;;25.24;47.68;98500.91;6158757;28;97434;-62
2021/07/06 01:28:39;;;;;;;;;18.60;18.00;;;;;25.12;47.41;98500.75;6163523;28;96987;-63
2021/07/06 01:31:48;;;;;;;;;21.75;18.75;;;;;25.13;47.96;98510.66;6161987;28;97076;-62
2021/07/06 01:34:51;;;;;;;;;20.00;19.00;;;;;25.05;48.10;98503.19;6163319;28;97455;-63
2021/07/06 01:37:58;;;;;;;;;20.50;18.00;;;;;24.95;48.33;98514.56;6145701;28;97438;-63
2021/07/06 01:41:02;;;;;;;;;21.00;19.50;;;;;24.79;48.47;98497.66;6145024;28;97832;-63
2021/07/06 01:44:18;;;;;;;;;22.60;18.60;;;;;24.82;48.70;98505.28;6163054;28;97509;-62
2021/07/06 01:47:21;;;;;;;;;19.25;18.25;;;;;24.82;48.55;98507.25;6145556;28;98420;-61
2021/07/06 01:50:27;;;;;;;;;21.00;18.75;;;;;24.82;48.64;98513.56;6162424;28;97567;-62
2021/07/06 01:53:31;;;;;;;;;22.40;19.80;;;;;24.74;48.66;98519.88;6145406;28;97241;-62
2021/07/06 01:56:37;;;;;;;;;19.60;19.00;;;;;24.63;49.50;98517.78;6160229;28;97162;-62
2021/07/06 01:59:41;;;;;;;;;21.00;19.60;;;;;24.54;49.41;98520.47;6152195;28;96443;-62
2021/07/06 02:02:45;;;;;;;;;21.60;21.00;;;;;24.47;49.64;98514.66;6119212;28;96757;-62
2021/07/06 02:05:53;;;;;;;;;19.00;19.00;;;;;24.41;49.73;98522.25;6142944;28;96530;-61
2021/07/06 02:08:57;;;;;;;;;21.40;20.00;;;;;24.45;49.61;98509.44;6163388;28;97199;-61
2021/07/06 02:12:01;;;;;;;;;20.00;20.00;;;;;24.44;49.79;98518.03;6162400;28;97478;-62
2021/07/06 02:15:05;;;;;;;;;21.50;19.00;;;;;24.36;50.04;98518.84;6162219;28;97543;-62
2021/07/06 02:18:14;;;;;;;;;21.60;20.60;;;;;24.36;50.17;98513.31;6162633;28;97481;-62
2021/07/06 02:21:17;;;;;;;;;21.40;19.00;;;;;24.33;50.12;98513.97;6145592;28;96970;-62
2021/07/06 02:24:22;;;;;;;;;19.00;18.25;;;;;24.38;50.16;98514.66;6162193;28;96391;-62
2021/07/06 02:27:25;;;;;;;;;21.40;20.00;;;;;24.38;49.99;98517.41;6162186;28;96581;-61
2021/07/06 02:30:28;;;;;;;;;21.00;19.60;;;;;24.36;50.21;98505.88;6162266;28;96578;-62
2021/07/06 02:33:35;;;;;;;;;17.60;17.00;;;;;24.36;50.34;98518.84;6161815;28;97451;-62
2021/07/06 02:36:38;;;;;;;;;23.00;19.60;;;;;24.34;50.39;98518.34;6162238;28;96785;-61
2021/07/06 02:39:43;;;;;;;;;21.60;19.60;;;;;24.34;50.22;98519.16;6162310;28;97433;-62
2021/07/06 02:42:46;;;;;;;;;22.40;20.40;;;;;24.38;50.02;98513.84;6162431;28;96649;-63
2021/07/06 02:45:51;;;;;;;;;21.00;19.25;;;;;24.33;50.70;98525.00;6161954;28;97428;-62
2021/07/06 02:48:54;;;;;;;;;22.00;19.00;;;;;24.27;50.82;98532.59;6162054;28;96620;-62
2021/07/06 02:51:57;;;;;;;;;22.00;21.00;;;;;24.27;51.12;98529.03;6161657;28;97705;-62
2021/07/06 02:55:02;;;;;;;;;22.00;21.40;;;;;24.26;50.76;98532.91;6161687;28;97313;-62
2021/07/06 02:58:05;;;;;;;;;20.50;20.00;;;;;24.31;50.84;98527.25;6161790;28;96691;-62
2021/07/06 03:01:09;;;;;;;;;20.60;19.00;;;;;24.36;50.87;98533.44;6162056;28;96555;-62
2021/07/06 03:04:12;;;;;;;;;20.75;18.75;;;;;24.41;50.85;98537.97;6161684;28;97499;-62
2021/07/06 03:07:16;;;;;;;;;19.00;17.00;;;;;24.46;50.73;98544.16;6161543;28;96711;-62
2021/07/06 03:10:22;;;;;;;;;16.20;15.00;;;;;24.48;50.59;98541.88;6161911;28;97473;-62
2021/07/06 03:13:26;;;;;;;;;21.00;19.00;;;;;24.51;50.45;98535.72;6162152;28;96945;-62
2021/07/06 03:16:29;;;;;;;;;20.00;18.00;;;;;24.54;50.51;98537.03;6165655;28;97420;-62
2021/07/06 03:19:33;;;;;;;;;19.00;17.75;;;;;24.53;50.46;98527.16;6165837;28;96481;-62
2021/07/06 03:22:36;;;;;;;;;21.00;18.40;;;;;24.53;50.68;98540.94;6147680;28;96700;-62
2021/07/06 03:25:41;;;;;;;;;19.00;17.00;;;;;24.56;50.68;98534.78;6165564;28;97302;-63
2021/07/06 03:28:44;;;;;;;;;16.25;15.25;;;;;24.62;50.57;98527.97;6165693;28;97572;-62
2021/07/06 03:31:47;;;;;;;;;17.60;17.00;;;;;24.59;50.60;98523.91;6165578;28;96616;-62
2021/07/06 03:34:50;;;;;;;;;17.60;16.00;;;;;24.67;50.20;98532.53;6166251;28;96979;-62
2021/07/06 03:37:54;;;;;;;;;16.60;14.60;;;;;24.67;50.45;98527.81;6165938;28;97514;-62
2021/07/06 03:40:58;;;;;;;;;17.00;16.40;;;;;24.75;50.12;98527.00;6124929;28;96836;-63
2021/07/06 03:44:01;;;;;;;;;17.00;16.00;;;;;24.80;50.09;98535.13;6165530;28;96521;-62
2021/07/06 03:47:05;;;;;;;;;19.00;18.40;;;;;24.90;50.03;98539.53;6165467;28;97433;-61
2021/07/06 03:50:12;;;;;;;;;18.80;16.40;;;;;24.90;49.65;98540.34;6164858;28;97671;-62
2021/07/06 03:53:15;;;;;;;;;13.40;12.40;;;;;25.02;49.36;98545.25;6127725;28;98599;-62
2021/07/06 03:56:19;;;;;;;;;16.60;14.60;;;;;25.10;49.00;98549.13;6165015;28;96658;-63
2021/07/06 03:59:22;;;;;;;;;15.80;15.00;;;;;25.15;48.82;98541.50;6165359;28;97463;-62
2021/07/06 04:02:26;;;;;;;;;16.20;14.20;;;;;25.20;48.72;98548.78;6141221;28;97643;-63
2021/07/06 04:05:29;;;;;;;;;14.00;13.00;;;;;25.24;48.77;98547.00;6162670;28;96887;-63
2021/07/06 04:08:33;;;;;;;;;17.00;16.00;;;;;25.30;48.44;98546.50;6166086;28;96411;-62
2021/07/06 04:11:37;;;;;;;;;14.60;13.60;;;;;25.33;48.39;98545.84;6147647;28;97297;-62
2021/07/06 04:14:41;;;;;;;;;18.00;16.60;;;;;25.37;48.39;98552.34;6165203;28;97295;-62
2021/07/06 04:17:45;;;;;;;;;16.75;16.00;;;;;25.41;48.27;98542.25;6151469;28;96566;-61
2021/07/06 04:20:49;;;;;;;;;15.40;15.40;;;;;25.39;48.11;98543.75;6131123;28;99745;-62
2021/07/06 04:23:52;;;;;;;;;16.00;15.00;;;;;25.51;48.14;98534.81;6165233;28;96493;-62
2021/07/06 04:26:57;;;;;;;;;14.00;14.00;;;;;25.62;48.05;98544.38;6164185;28;97176;-62
2021/07/06 04:30:00;;;;;;;;;15.00;15.00;;;;;25.68;47.82;98543.06;6146994;28;97390;-62
2021/07/06 04:33:03;;;;;;;;;15.40;15.40;;;;;25.86;47.51;98542.66;6164685;28;96987;-63
2021/07/06 04:36:07;;;;;;;;;16.00;15.00;;;;;25.93;47.04;98553.22;6164312;28;97434;-61
2021/07/06 04:39:10;;;;;;;;;18.25;17.25;;;;;26.02;46.97;98547.66;6145987;28;96733;-62
2021/07/06 04:42:16;;;;;;;;;14.40;14.00;;;;;26.01;46.82;98549.59;6164608;28;96460;-61
2021/07/06 04:45:19;;;;;;;;;13.00;12.00;;;;;26.06;46.83;98554.94;6164499;28;97495;-62
2021/07/06 04:48:22;;;;;;;;;15.00;15.00;;;;;26.09;46.66;98559.03;6164430;28;97399;-62
2021/07/06 04:51:25;;;;;;;;;14.00;13.00;;;;;26.26;46.66;98553.44;6164267;28;96519;-62
2021/07/06 04:54:28;;;;;;;;;16.00;15.00;;;;;26.40;45.90;98559.53;6145687;28;99734;-63
2021/07/06 04:57:33;;;;;;;;;15.25;14.00;;;;;26.47;45.88;98553.50;6147180;28;96519;-61
2021/07/06 05:00:36;;;;;;;;;15.00;15.00;;;;;26.53;45.64;98561.28;6163970;28;96663;-61
2021/07/06 05:03:42;;;;;;;;;14.00;12.60;;;;;26.64;45.84;98564.44;6164250;28;96790;-61
2021/07/06 05:06:45;;;;;;;;;14.50;13.00;;;;;26.73;45.51;98563.22;6164062;28;97197;-62
2021/07/06 05:09:48;;;;;;;;;14.60;14.00;;;;;26.87;45.73;98568.56;6164050;28;96702;-62
2021/07/06 05:12:53;;;;;;;;;13.50;13.00;;;;;26.95;45.13;98562.16;6145613;28;96657;-61
2021/07/06 05:15:56;;;;;;;;;15.75;14.75;;;;;27.02;44.83;98569.91;6163819;28;96685;-62
2021/07/06 05:18:59;;;;;;;;;18.20;16.60;;;;;27.06;45.05;98576.41;6163050;28;96737;-61
2021/07/06 05:22:02;;;;;;;;;13.00;13.00;;;;;27.14;44.88;98581.03;6163271;28;97428;-61
2021/07/06 05:25:07;;;;;;;;;16.40;16.40;;;;;27.19;44.63;98586.38;6163018;28;96527;-62
2021/07/06 05:28:11;;;;;;;;;15.00;14.40;;;;;27.19;44.78;98588.31;6144762;28;100018;-61
2021/07/06 05:31:15;;;;;;;;;13.33;13.00;;;;;27.32;44.89;98587.25;6162658;28;96959;-62
2021/07/06 05:34:19;;;;;;;;;15.00;14.00;;;;;27.49;44.72;98576.03;6162195;28;96610;-62
2021/07/06 05:37:22;;;;;;;;;14.50;13.00;;;;;27.62;44.50;98580.47;6144922;28;97364;-62
2021/07/06 05:40:25;;;;;;;;;14.60;14.00;;;;;27.79;44.62;98582.28;6145598;28;99592;-64
2021/07/06 05:43:30;;;;;;;;;15.00;13.00;;;;;27.93;43.91;98578.03;6162940;28;96891;-61
2021/07/06 05:46:33;;;;;;;;;16.00;15.00;;;;;28.08;44.06;98589.59;6156779;28;97186;-64
2021/07/06 05:49:36;;;;;;;;;16.00;16.00;;;;;28.23;43.40;98580.66;6155234;28;98012;-63
2021/07/06 05:52:40;;;;;;;;;14.00;13.00;;;;;28.38;43.19;98582.75;6162720;28;96562;-63
2021/07/06 05:55:44;;;;;;;;;16.60;14.60;;;;;28.39;42.69;98576.81;6145261;28;97007;-63
2021/07/06 05:58:48;;;;;;;;;18.00;15.60;;;;;28.26;42.75;98550.25;6162888;28;96864;-63
2021/07/06 06:01:52;;;;;;;;;13.60;13.60;;;;;28.49;42.15;98586.69;6162759;28;97423;-64
2021/07/06 06:04:55;;;;;;;;;14.60;14.00;;;;;28.59;41.73;98585.41;6149160;28;97464;-64
2021/07/06 06:07:58;;;;;;;;;17.00;16.00;;;;;28.66;41.50;98589.19;6162231;28;97685;-63
2021/07/06 06:11:02;;;;;;;;;14.00;13.00;;;;;28.79;41.79;98590.00;6144449;28;97464;-63
2021/07/06 06:14:06;;;;;;;;;14.40;14.00;;;;;28.82;41.40;98600.44;6144509;28;96952;-62
2021/07/06 06:17:10;;;;;;;;;12.80;12.00;;;;;28.93;41.09;98600.78;6161888;28;96890;-62
2021/07/06 06:20:14;;;;;;;;;16.00;15.60;;;;;28.99;40.89;98605.72;6162449;28;96343;-62
2021/07/06 06:23:17;;;;;;;;;16.00;15.00;;;;;29.12;41.07;98603.75;6144760;28;97800;-62
2021/07/06 06:26:20;;;;;;;;;12.00;12.00;;;;;29.22;40.98;98608.81;6161997;28;96582;-62
2021/07/06 06:29:25;;;;;;;;;16.00;15.00;;;;;29.36;40.93;98608.44;6143924;28;98553;-62
2021/07/06 06:32:28;;;;;;;;;12.00;12.00;;;;;29.42;40.78;98604.28;6161810;28;96511;-62
2021/07/06 06:35:31;;;;;;;;;15.40;12.40;;;;;29.57;41.76;98611.81;6161014;28;96701;-62
2021/07/06 06:38:35;;;;;;;;;14.50;14.50;;;;;29.63;39.89;98621.53;6162275;28;96521;-64
2021/07/06 06:41:38;;;;;;;;;15.00;14.00;;;;;29.79;39.59;98613.25;6162633;28;96526;-62
2021/07/06 06:44:42;;;;;;;;;13.75;12.00;;;;;29.96;39.98;98610.16;6145682;28;96762;-63
2021/07/06 06:47:46;;;;;;;;;13.00;12.00;;;;;30.15;39.78;98620.63;6162617;28;97438;-62
2021/07/06 06:50:50;;;;;;;;;15.00;14.50;;;;;30.24;39.32;98615.69;6149760;28;97209;-63
2021/07/06 06:53:53;;;;;;;;;15.00;14.60;;;;;30.37;39.57;98612.44;6166638;28;97475;-63
2021/07/06 06:56:58;;;;;;;;;13.67;13.00;;;;;30.52;39.03;98620.03;6166728;28;97125;-63
2021/07/06 07:00:05;;;;;;;;;14.00;13.50;;;;;30.64;37.85;98618.31;6166682;28;96417;-63
2021/07/06 07:03:09;;;;;;;;;15.00;13.00;;;;;30.80;38.49;98616.28;6166509;28;96503;-64
2021/07/06 07:06:12;;;;;;;;;14.00;14.00;;;;;30.93;37.54;98618.63;6166570;28;96522;-63
2021/07/06 07:09:15;;;;;;;;;14.75;13.75;;;;;31.03;36.97;98622.84;6140782;28;97475;-63
2021/07/06 07:12:19;;;;;;;;;15.00;14.00;;;;;31.03;37.46;98630.41;6163441;28;97236;-63
2021/07/06 07:15:24;;;;;;;;;16.40;15.00;;;;;30.94;37.02;98622.19;6165692;28;97436;-63
2021/07/06 07:18:27;;;;;;;;;13.00;12.50;;;;;30.95;37.05;98624.63;6166136;28;96405;-63
2021/07/06 07:21:31;;;;;;;;;15.00;14.00;;;;;30.99;37.24;98627.47;6148435;28;96698;-64
2021/07/06 07:24:34;;;;;;;;;14.60;12.80;;;;;30.89;36.77;98614.13;6151778;28;96509;-64
2021/07/06 07:27:41;;;;;;;;;13.40;12.40;;;;;31.10;36.47;98611.88;6165722;28;96999;-63
2021/07/06 07:30:46;;;;;;;;;13.00;13.00;;;;;31.35;37.10;98612.41;6148209;28;97425;-64
2021/07/06 07:33:49;;;;;;;;;13.75;13.00;;;;;31.55;36.73;98614.03;6165118;28;97994;-64
2021/07/06 07:36:53;;;;;;;;;13.00;12.00;;;;;31.71;36.20;98617.59;6165956;28;96090;-63
2021/07/06 07:39:56;;;;;;;;;13.00;13.00;;;;;31.77;35.34;98612.50;6165643;28;97436;-63
2021/07/06 07:43:06;;;;;;;;;14.00;12.00;;;;;31.95;35.10;98610.88;6147914;28;97442;-64
2021/07/06 07:46:10;;;;;;;;;13.00;12.00;;;;;32.15;35.70;98608.88;6147034;28;96592;-63
2021/07/06 07:49:14;;;;;;;;;14.00;13.00;;;;;32.42;35.36;98601.38;6164315;28;96369;-64
2021/07/06 07:52:17;;;;;;;;;14.00;13.00;;;;;32.59;34.26;98604.47;6165051;28;98223;-64
2021/07/06 07:55:20;;;;;;;;;13.00;13.00;;;;;32.85;34.13;98600.91;6164128;28;97360;-63
2021/07/06 07:58:24;;;;;;;;;13.00;12.00;;;;;33.08;33.75;98614.81;6146906;28;98476;-63
2021/07/06 08:01:28;;;;;;;;;12.00;12.00;;;;;33.00;32.50;98616.69;6163230;28;96583;-63
2021/07/06 08:04:31;;;;;;;;;11.60;11.00;;;;;32.94;33.69;98623.75;6146539;28;98171;-63
2021/07/06 08:07:35;;;;;;;;;11.00;11.00;;;;;32.82;32.91;98618.41;6164367;28;97497;-64
2021/07/06 08:10:38;;;;;;;;;11.00;10.00;;;;;32.79;32.75;98605.22;6163905;28;97450;-63
2021/07/06 08:13:41;;;;;;;;;13.00;11.50;;;;;32.82;32.22;98612.81;6164523;28;97545;-63
2021/07/06 08:16:46;;;;;;;;;12.00;12.00;;;;;32.99;32.77;98612.28;6163944;28;97815;-64
2021/07/06 08:19:52;;;;;;;;;12.60;11.00;;;;;33.10;32.29;98612.44;6146493;28;97481;-64
2021/07/06 08:22:57;;;;;;;;;14.60;12.60;;;;;33.02;31.84;98614.31;6146741;28;96584;-63
2021/07/06 08:26:01;;;;;;;;;12.00;12.00;;;;;33.08;32.51;98621.22;6163873;28;97307;-63
2021/07/06 08:29:05;;;;;;;;;14.60;12.60;;;;;33.26;32.71;98613.09;6163619;28;96447;-63
2021/07/06 08:32:10;;;;;;;;;12.60;12.00;;;;;33.56;32.23;98615.88;6163597;28;96637;-63
2021/07/06 08:35:13;;;;;;;;;13.00;13.00;;;;;33.65;30.93;98612.78;6162723;28;97473;-64
2021/07/06 08:38:17;;;;;;;;;13.00;12.60;;;;;33.53;31.09;98617.44;6145175;28;96671;-64
2021/07/06 08:41:20;;;;;;;;;12.25;11.75;;;;;33.45;31.88;98621.31;6163448;28;97471;-63
2021/07/06 08:44:23;;;;;;;;;11.00;11.00;;;;;33.57;32.41;98602.72;6162984;28;97476;-63
2021/07/06 08:47:30;;;;;;;;;12.60;12.00;;;;;33.72;30.75;98610.13;6163366;28;96615;-64
2021/07/06 08:50:34;;;;;;;;;13.40;13.00;;;;;33.84;29.93;98609.84;6145666;28;96607;-63
2021/07/06 08:53:37;;;;;;;;;12.50;12.50;;;;;34.05;30.33;98609.28;6145787;28;96589;-64
2021/07/06 08:56:40;;;;;;;;;10.60;10.60;;;;;34.15;30.19;98614.16;6146402;28;97594;-63
2021/07/06 09:00:04;;;;;;;;;14.50;12.50;;;;;34.34;28.27;98611.19;6163336;28;97658;-64
2021/07/06 09:03:09;;;;;;;;;11.40;11.00;;;;;34.41;29.42;98614.03;6162890;28;96463;-63
2021/07/06 09:06:12;;;;;;;;;11.00;11.00;;;;;34.64;29.34;98613.84;6145414;28;97737;-63
2021/07/06 09:09:18;;;;;;;;;12.00;12.00;;;;;35.01;29.99;98608.13;6132472;28;97643;-62
2021/07/06 09:12:35;;;;;;;;;12.00;12.00;;;;;35.28;28.70;98615.13;6162936;28;96433;-62
2021/07/06 09:15:38;;;;;;;;;14.00;13.00;;;;;35.20;28.37;98617.06;6163323;28;96480;-63
2021/07/06 09:18:46;;;;;;;;;10.00;9.00;;;;;35.39;26.94;98609.56;6163181;28;97139;-62
2021/07/06 09:22:11;;;;;;;;;11.60;11.60;;;;;35.44;26.64;98611.97;6163064;28;97539;-63
2021/07/06 09:25:14;;;;;;;;;11.00;11.00;;;;;35.57;26.86;98616.06;6163267;28;97429;-63
2021/07/06 09:28:24;;;;;;;;;10.00;10.00;;;;;35.79;27.75;98611.34;6145364;28;99831;-62
2021/07/06 09:31:31;;;;;;;;;10.00;10.00;;;;;36.03;27.16;98610.63;6132888;28;96398;-63
2021/07/06 09:34:36;;;;;;;;;12.00;12.00;;;;;36.21;27.24;98613.50;6152696;28;97610;-63
2021/07/06 09:37:47;;;;;;;;;10.75;10.75;;;;;36.32;26.73;98612.28;6138227;28;97998;-62
2021/07/06 09:40:51;;;;;;;;;13.00;13.00;;;;;36.52;26.50;98590.25;6138403;28;96805;-63
2021/07/06 09:43:54;;;;;;;;;13.00;12.50;;;;;36.69;25.99;98606.34;6138870;28;96494;-62
2021/07/06 09:47:03;;;;;;;;;11.00;10.20;;;;;36.88;26.32;98600.28;6138589;28;96602;-62
2021/07/06 09:50:13;;;;;;;;;12.00;11.00;;;;;37.18;25.45;98602.66;6138683;28;96500;-63
2021/07/06 09:53:27;;;;;;;;;13.00;11.40;;;;;37.31;25.52;98605.81;6137035;28;97260;-63
2021/07/06 09:56:31;;;;;;;;;13.25;12.25;;;;;37.42;25.21;98600.16;6137192;28;96943;-62
2021/07/06 09:59:35;;;;;;;;;12.00;12.00;;;;;37.54;25.10;98603.34;6138416;28;96709;-63
2021/07/06 10:02:39;;;;;;;;;16.00;13.00;;;;;37.31;24.63;98600.19;6138267;28;97164;-63
2021/07/06 10:05:45;;;;;;;;;14.00;13.00;;;;;36.92;25.27;98585.41;6138972;28;97404;-62
2021/07/06 10:08:49;;;;;;;;;12.00;12.00;;;;;36.98;25.66;98595.03;6138570;28;96579;-62
2021/07/06 10:11:53;;;;;;;;;11.00;11.00;;;;;36.86;26.10;98591.44;6138122;28;96627;-62
2021/07/06 10:14:56;;;;;;;;;11.00;10.00;;;;;36.97;25.99;98591.44;6137200;28;97385;-63
2021/07/06 10:18:20;;;;;;;;;13.00;13.00;;;;;36.94;25.54;98583.03;6138334;28;96612;-63
2021/07/06 10:21:26;;;;;;;;;11.00;10.00;;;;;37.09;25.42;98581.81;6138131;28;97588;-62
2021/07/06 10:24:29;;;;;;;;;11.50;11.00;;;;;37.31;25.96;98577.72;6138401;28;96425;-62
2021/07/06 10:27:35;;;;;;;;;11.00;11.00;;;;;37.48;24.11;98576.84;6138097;28;96807;-63
2021/07/06 10:30:40;;;;;;;;;11.75;11.25;;;;;37.27;23.55;98576.94;6138828;28;96471;-62
2021/07/06 10:33:45;;;;;;;;;12.60;12.00;;;;;37.06;23.99;98577.75;6141912;28;97457;-62
2021/07/06 10:36:54;;;;;;;;;11.40;10.40;;;;;36.79;24.44;98565.38;6163204;28;97972;-62
2021/07/06 10:40:14;;;;;;;;;11.00;11.00;;;;;36.63;25.15;98567.81;6163533;28;97064;-64
2021/07/06 10:43:30;;;;;;;;;10.00;10.00;;;;;36.74;25.14;98569.41;6144253;28;96796;-64
2021/07/06 10:46:48;;;;;;;;;11.00;10.00;;;;;36.64;24.23;98567.41;6162377;28;97502;-63
2021/07/06 10:49:51;;;;;;;;;10.00;10.00;;;;;36.57;25.31;98563.75;6163574;28;97521;-62
2021/07/06 10:53:17;;;;;;;;;12.00;11.00;;;;;36.52;25.10;98564.16;6164002;28;97116;-62
2021/07/06 10:56:31;;;;;;;;;12.75;12.00;;;;;36.45;25.17;98559.38;6145350;28;96706;-62
2021/07/06 10:59:37;;;;;;;;;11.00;10.00;;;;;36.56;24.75;98553.72;6145742;28;97383;-63
2021/07/06 11:02:40;;;;;;;;;11.00;10.00;;;;;36.45;25.01;98551.75;6145131;28;96630;-63
2021/07/06 11:05:45;;;;;;;;;10.00;10.00;;;;;36.32;25.14;98546.91;6163051;28;97395;-63
2021/07/06 11:08:50;;;;;;;;;11.00;10.20;;;;;36.26;25.28;98545.75;6161896;28;96573;-63
2021/07/06 11:11:53;;;;;;;;;9.00;9.00;;;;;36.16;25.28;98540.94;6161952;28;97157;-63
2021/07/06 11:14:58;;;;;;;;;10.80;10.80;;;;;36.12;25.62;98543.69;6162405;28;96425;-62
2021/07/06 11:18:04;;;;;;;;;11.40;10.40;;;;;35.94;25.73;98546.47;6164211;28;96503;-63
2021/07/06 11:21:36;;;;;;;;;10.00;10.00;;;;;36.06;25.26;98539.69;6162194;28;96492;-62
2021/07/06 11:24:42;;;;;;;;;11.20;11.20;;;;;36.01;26.15;98543.69;6150583;28;96323;-63
2021/07/06 11:27:55;;;;;;;;;11.80;11.80;;;;;36.25;25.81;98535.72;6162639;28;97425;-63
2021/07/06 11:31:01;;;;;;;;;12.00;11.00;;;;;35.78;25.50;98545.22;6162577;28;97027;-63
2021/07/06 11:34:05;;;;;;;;;12.00;11.00;;;;;35.65;26.26;98536.38;6137221;28;97201;-63
2021/07/06 11:37:12;;;;;;;;;10.00;10.00;;;;;35.31;25.26;98537.84;6141248;28;97430;-63
2021/07/06 11:40:18;;;;;;;;;11.00;10.00;;;;;35.68;25.43;98524.38;6141396;28;97418;-63
2021/07/06 11:43:23;;;;;;;;;11.00;10.00;;;;;36.00;25.75;98530.84;6140881;28;97447;-63
2021/07/06 11:46:27;;;;;;;;;11.00;10.40;;;;;36.14;24.80;98523.66;6142787;28;96986;-62
2021/07/06 11:49:30;;;;;;;;;12.00;11.00;;;;;36.45;25.66;98515.25;6141275;28;97992;-63
2021/07/06 11:52:41;;;;;;;;;10.60;10.00;;;;;36.57;25.02;98510.41;6141672;28;97447;-63
2021/07/06 11:55:48;;;;;;;;;11.00;10.25;;;;;36.53;24.47;98509.63;6140639;28;97946;-63
2021/07/06 11:58:52;;;;;;;;;11.00;11.00;;;;;36.60;25.52;98512.41;6142225;28;97963;-62
2021/07/06 12:02:04;;;;;;;;;11.00;10.00;;;;;36.39;25.48;98513.25;6141617;28;96707;-62
2021/07/06 12:05:14;;;;;;;;;13.40;12.60;;;;;36.22;24.97;98500.81;6140117;28;97521;-63
2021/07/06 12:08:19;;;;;;;;;12.00;11.60;;;;;36.20;25.84;98497.63;6140478;28;96459;-63
2021/07/06 12:11:26;;;;;;;;;11.00;10.60;;;;;36.27;25.06;98494.78;6140740;28;98071;-62
2021/07/06 12:14:29;;;;;;;;;11.75;11.75;;;;;36.40;24.58;98498.00;6141801;28;96526;-63
2021/07/06 12:17:34;;;;;;;;;11.60;11.60;;;;;36.75;26.40;98494.38;6140318;28;97409;-63
2021/07/06 12:20:37;;;;;;;;;12.60;11.00;;;;;37.16;25.32;98495.44;6138916;28;96832;-63
2021/07/06 12:23:46;;;;;;;;;12.60;11.60;;;;;37.54;24.95;98498.47;6138781;28;97044;-62
2021/07/06 12:26:53;;;;;;;;;12.40;12.00;;;;;37.79;24.10;98490.69;6141814;28;98106;-62
2021/07/06 12:30:01;;;;;;;;;16.00;14.40;;;;;37.90;23.72;98491.41;6139405;28;96872;-63
2021/07/06 12:33:06;;;;;;;;;12.40;11.40;;;;;37.93;23.98;98487.78;6140848;28;97188;-62
2021/07/06 12:36:10;;;;;;;;;13.00;13.00;;;;;37.72;23.59;98496.38;6162793;28;97506;-63
2021/07/06 12:39:19;;;;;;;;;13.00;11.80;;;;;37.64;23.90;98492.78;6163990;28;97463;-63
2021/07/06 12:42:25;;;;;;;;;13.00;13.00;;;;;37.48;24.19;98481.22;6164411;28;97415;-62
2021/07/06 12:45:33;;;;;;;;;14.00;13.00;;;;;37.43;24.35;98489.28;6132042;28;96917;-62
2021/07/06 12:48:36;;;;;;;;;11.20;10.80;;;;;37.46;23.88;98486.47;6163404;28;97413;-62
2021/07/06 12:51:58;;;;;;;;;13.00;11.60;;;;;37.64;23.51;98484.34;6163919;28;97486;-62
2021/07/06 12:55:08;;;;;;;;;11.00;11.00;;;;;37.85;24.94;98474.19;6164646;28;97376;-63
2021/07/06 12:58:13;;;;;;;;;12.40;12.00;;;;;37.93;23.24;98486.97;6146027;28;96829;-62
2021/07/06 13:01:31;;;;;;;;;9.00;9.00;;;;;37.50;23.51;98484.41;6145070;28;98931;-63
2021/07/06 13:04:51;;;;;;;;;11.20;10.00;;;;;37.25;23.03;98478.13;6122239;28;97959;-62
2021/07/06 13:07:56;;;;;;;;;11.00;11.00;;;;;37.32;23.68;98475.28;6164941;28;96689;-62
2021/07/06 13:11:04;;;;;;;;;12.00;12.00;;;;;37.56;24.38;98471.56;6145369;28;96679;-62
2021/07/06 13:14:20;;;;;;;;;14.60;14.00;;;;;37.79;25.32;98473.81;6146478;28;96637;-62
2021/07/06 13:17:23;;;;;;;;;12.00;12.00;;;;;38.08;24.34;98472.41;6162601;28;98249;-62
2021/07/06 13:20:28;;;;;;;;;12.00;11.00;;;;;38.25;23.40;98464.22;6145108;28;96753;-62
2021/07/06 13:23:33;;;;;;;;;11.25;10.75;;;;;38.17;23.53;98472.72;6162971;28;96616;-62
2021/07/06 13:26:38;;;;;;;;;13.00;13.00;;;;;38.10;24.40;98463.56;6163524;28;97502;-62
2021/07/06 13:29:43;;;;;;;;;13.00;13.00;;;;;38.20;25.38;98470.31;6145543;28;98009;-62
2021/07/06 13:32:48;;;;;;;;;12.00;11.60;;;;;38.17;24.37;98463.47;6162902;28;96716;-62
2021/07/06 13:35:54;;;;;;;;;15.00;14.00;;;;;37.82;24.57;98458.94;6163439;28;97423;-63
2021/07/06 13:38:57;;;;;;;;;13.00;13.00;;;;;37.56;24.91;98457.50;6132065;28;96545;-62
2021/07/06 13:42:01;;;;;;;;;14.00;14.00;;;;;37.35;26.02;98451.16;6148576;28;97467;-63
2021/07/06 13:45:08;;;;;;;;;15.60;14.60;;;;;37.51;26.37;98448.66;6131684;28;96773;-62
2021/07/06 13:48:11;;;;;;;;;15.75;14.75;;;;;37.34;25.84;98452.41;6144355;28;97365;-63
2021/07/06 13:51:14;;;;;;;;;15.40;14.00;;;;;37.40;25.84;98454.34;6143929;28;98642;-61
2021/07/06 13:54:23;;;;;;;;;13.00;13.00;;;;;37.50;26.43;98445.03;6162029;28;97481;-61
2021/07/06 13:57:27;;;;;;;;;14.20;13.00;;;;;37.51;26.63;98440.22;6156553;28;98061;-60
2021/07/06 14:00:33;;;;;;;;;15.00;14.50;;;;;37.50;26.12;98438.63;6157839;28;96621;-61
2021/07/06 14:03:36;;;;;;;;;13.50;13.00;;;;;37.25;25.08;98447.19;6151020;28;96629;-59
2021/07/06 14:06:39;;;;;;;;;12.60;12.60;;;;;37.22;26.32;98440.41;6156634;28;97039;-59
2021/07/06 14:09:46;;;;;;;;;13.00;13.00;;;;;37.08;25.33;98434.06;6158491;28;96776;-58
2021/07/06 14:12:49;;;;;;;;;13.40;13.00;;;;;37.07;26.21;98435.22;6160107;28;96601;-59